sensor_id;sensor_type;location;lat;lon;timestamp;temperature;humidity
19799;DHT22;10059;59.850;10.454;2022-10-31T00:00:08;8.90;99.90
19799;DHT22;10059;59.850;10.454;2022-10-31T00:02:37;8.90;99.90
19799;DHT22;10059;59.850;10.454;2022-10-31T00:05:05;8.70;99.90
19799;DHT22;10059;59.850;10.454;2022-10-31T00:07:32;8.70;99.90
19799;DHT22;10059;59.850;10.454;2022-10-31T00:09:59;8.70;99.90
19799;DHT22;10059;59.850;10.454;2022-10-31T00:12:26;8.80;99.90
19799;DHT22;10059;59.850;10.454;2022-10-31T00:14:53;8.80;99.90
19799;DHT22;10059;59.850;10.454;2022-10-31T00:17:20;8.90;99.90
19799;DHT22;10059;59.850;10.454;2022-10-31T00:19:47;8.90;99.90
19799;DHT22;10059;59.850;10.454;2022-10-31T00:22:15;8.90;99.90
19799;DHT22;10059;59.850;10.454;2022-10-31T00:24:42;9.00;99.90
19799;DHT22;10059;59.850;10.454;2022-10-31T00:27:09;9.00;99.90
19799;DHT22;10059;59.850;10.454;2022-10-31T00:29:36;9.10;99.90
19799;DHT22;10059;59.850;10.454;2022-10-31T00:32:03;9.10;99.90
19799;DHT22;10059;59.850;10.454;2022-10-31T00:34:29;9.00;99.90
19799;DHT22;10059;59.850;10.454;2022-10-31T00:36:56;9.00;99.90
19799;DHT22;10059;59.850;10.454;2022-10-31T00:39:25;9.00;99.90
19799;DHT22;10059;59.850;10.454;2022-10-31T00:41:51;9.20;99.90
19799;DHT22;10059;59.850;10.454;2022-10-31T00:44:18;9.10;99.90
19799;DHT22;10059;59.850;10.454;2022-10-31T00:46:45;9.20;99.90
19799;DHT22;10059;59.850;10.454;2022-10-31T00:49:12;9.20;99.90
19799;DHT22;10059;59.850;10.454;2022-10-31T00:51:39;9.10;99.90
19799;DHT22;10059;59.850;10.454;2022-10-31T00:54:06;9.10;99.90
19799;DHT22;10059;59.850;10.454;2022-10-31T00:56:34;9.30;99.90
19799;DHT22;10059;59.850;10.454;2022-10-31T00:59:01;9.30;99.90
19799;DHT22;10059;59.850;10.454;2022-10-31T01:01:28;9.20;99.90
19799;DHT22;10059;59.850;10.454;2022-10-31T01:03:55;9.10;99.90
19799;DHT22;10059;59.850;10.454;2022-10-31T01:06:22;9.10;99.90
19799;DHT22;10059;59.850;10.454;2022-10-31T01:08:49;9.00;99.90
19799;DHT22;10059;59.850;10.454;2022-10-31T01:11:17;9.00;99.90
19799;DHT22;10059;59.850;10.454;2022-10-31T01:13:46;8.90;99.90
19799;DHT22;10059;59.850;10.454;2022-10-31T01:16:16;8.90;99.90
19799;DHT22;10059;59.850;10.454;2022-10-31T01:18:43;8.90;99.90
19799;DHT22;10059;59.850;10.454;2022-10-31T01:21:12;8.90;99.90
19799;DHT22;10059;59.850;10.454;2022-10-31T01:23:39;9.00;99.90
19799;DHT22;10059;59.850;10.454;2022-10-31T01:26:08;9.00;99.90
19799;DHT22;10059;59.850;10.454;2022-10-31T01:28:37;8.90;99.90
19799;DHT22;10059;59.850;10.454;2022-10-31T01:31:07;8.90;99.90
19799;DHT22;10059;59.850;10.454;2022-10-31T01:33:35;8.90;99.90
19799;DHT22;10059;59.850;10.454;2022-10-31T01:36:12;8.90;99.90
19799;DHT22;10059;59.850;10.454;2022-10-31T01:38:39;9.00;99.90
19799;DHT22;10059;59.850;10.454;2022-10-31T01:41:06;9.10;99.90
19799;DHT22;10059;59.850;10.454;2022-10-31T01:43:46;9.10;99.90
19799;DHT22;10059;59.850;10.454;2022-10-31T01:46:17;9.10;99.90
19799;DHT22;10059;59.850;10.454;2022-10-31T01:48:44;9.20;99.90
19799;DHT22;10059;59.850;10.454;2022-10-31T01:51:13;9.40;99.90
19799;DHT22;10059;59.850;10.454;2022-10-31T01:53:42;9.40;99.90
19799;DHT22;10059;59.850;10.454;2022-10-31T01:56:10;9.40;99.90
19799;DHT22;10059;59.850;10.454;2022-10-31T01:58:37;9.40;99.90
19799;DHT22;10059;59.850;10.454;2022-10-31T02:01:04;9.30;99.90
19799;DHT22;10059;59.850;10.454;2022-10-31T02:03:33;9.40;99.90
19799;DHT22;10059;59.850;10.454;2022-10-31T02:06:03;9.50;99.90
19799;DHT22;10059;59.850;10.454;2022-10-31T02:08:34;9.30;99.90
19799;DHT22;10059;59.850;10.454;2022-10-31T02:11:01;9.20;99.90
19799;DHT22;10059;59.850;10.454;2022-10-31T02:13:29;9.40;99.90
19799;DHT22;10059;59.850;10.454;2022-10-31T02:15:58;9.50;99.90
19799;DHT22;10059;59.850;10.454;2022-10-31T02:18:27;9.50;99.90
19799;DHT22;10059;59.850;10.454;2022-10-31T02:21:02;9.50;99.90
19799;DHT22;10059;59.850;10.454;2022-10-31T02:24:00;9.50;99.90
19799;DHT22;10059;59.850;10.454;2022-10-31T02:26:59;9.50;99.90
19799;DHT22;10059;59.850;10.454;2022-10-31T02:29:56;9.50;99.90
19799;DHT22;10059;59.850;10.454;2022-10-31T02:32:38;9.50;99.90
19799;DHT22;10059;59.850;10.454;2022-10-31T02:35:11;9.30;99.90
19799;DHT22;10059;59.850;10.454;2022-10-31T02:37:46;9.20;99.90
19799;DHT22;10059;59.850;10.454;2022-10-31T02:40:19;9.30;99.90
19799;DHT22;10059;59.850;10.454;2022-10-31T02:42:53;9.40;99.90
19799;DHT22;10059;59.850;10.454;2022-10-31T02:45:29;9.40;99.90
19799;DHT22;10059;59.850;10.454;2022-10-31T02:48:03;9.50;99.90
19799;DHT22;10059;59.850;10.454;2022-10-31T02:50:34;9.40;99.90
19799;DHT22;10059;59.850;10.454;2022-10-31T02:53:03;9.40;99.90
19799;DHT22;10059;59.850;10.454;2022-10-31T02:55:50;9.30;99.90
19799;DHT22;10059;59.850;10.454;2022-10-31T02:58:22;9.40;99.90
19799;DHT22;10059;59.850;10.454;2022-10-31T03:04:16;9.10;99.90
19799;DHT22;10059;59.850;10.454;2022-10-31T03:06:50;9.20;99.90
19799;DHT22;10059;59.850;10.454;2022-10-31T03:09:23;9.30;99.90
19799;DHT22;10059;59.850;10.454;2022-10-31T03:11:58;9.30;99.90
19799;DHT22;10059;59.850;10.454;2022-10-31T03:14:31;9.30;99.90
19799;DHT22;10059;59.850;10.454;2022-10-31T03:17:05;9.20;99.90
19799;DHT22;10059;59.850;10.454;2022-10-31T03:19:38;9.30;99.90
19799;DHT22;10059;59.850;10.454;2022-10-31T03:22:10;9.20;99.90
19799;DHT22;10059;59.850;10.454;2022-10-31T03:24:39;9.40;99.90
19799;DHT22;10059;59.850;10.454;2022-10-31T03:27:10;9.30;99.90
19799;DHT22;10059;59.850;10.454;2022-10-31T03:29:39;9.30;99.90
19799;DHT22;10059;59.850;10.454;2022-10-31T03:32:09;9.30;99.90
19799;DHT22;10059;59.850;10.454;2022-10-31T03:34:41;9.30;99.90
19799;DHT22;10059;59.850;10.454;2022-10-31T03:37:11;9.20;99.90
19799;DHT22;10059;59.850;10.454;2022-10-31T03:39:40;9.10;99.90
19799;DHT22;10059;59.850;10.454;2022-10-31T03:42:10;9.10;99.90
19799;DHT22;10059;59.850;10.454;2022-10-31T03:44:40;9.00;99.90
19799;DHT22;10059;59.850;10.454;2022-10-31T03:47:08;9.10;99.90
19799;DHT22;10059;59.850;10.454;2022-10-31T03:49:35;9.20;99.90
19799;DHT22;10059;59.850;10.454;2022-10-31T03:52:12;9.30;99.90
19799;DHT22;10059;59.850;10.454;2022-10-31T03:54:45;9.30;99.90
19799;DHT22;10059;59.850;10.454;2022-10-31T03:57:18;9.20;99.90
19799;DHT22;10059;59.850;10.454;2022-10-31T03:59:51;9.20;99.90
19799;DHT22;10059;59.850;10.454;2022-10-31T04:02:23;9.30;99.90
19799;DHT22;10059;59.850;10.454;2022-10-31T04:04:52;9.40;99.90
19799;DHT22;10059;59.850;10.454;2022-10-31T04:07:22;9.40;99.90
19799;DHT22;10059;59.850;10.454;2022-10-31T04:09:53;9.40;99.90
19799;DHT22;10059;59.850;10.454;2022-10-31T04:12:21;9.20;99.90
19799;DHT22;10059;59.850;10.454;2022-10-31T04:14:50;9.10;99.90
19799;DHT22;10059;59.850;10.454;2022-10-31T04:17:21;9.10;99.90
19799;DHT22;10059;59.850;10.454;2022-10-31T04:19:49;9.20;99.90
19799;DHT22;10059;59.850;10.454;2022-10-31T04:22:16;9.30;99.90
19799;DHT22;10059;59.850;10.454;2022-10-31T04:24:44;9.40;99.90
19799;DHT22;10059;59.850;10.454;2022-10-31T04:27:11;9.30;99.90
19799;DHT22;10059;59.850;10.454;2022-10-31T04:29:38;9.30;99.90
19799;DHT22;10059;59.850;10.454;2022-10-31T04:32:05;9.30;99.90
19799;DHT22;10059;59.850;10.454;2022-10-31T04:34:32;9.30;99.90
19799;DHT22;10059;59.850;10.454;2022-10-31T04:36:59;9.40;99.90
19799;DHT22;10059;59.850;10.454;2022-10-31T04:39:26;9.50;99.90
19799;DHT22;10059;59.850;10.454;2022-10-31T04:41:54;9.50;99.90
19799;DHT22;10059;59.850;10.454;2022-10-31T04:44:21;9.60;99.90
19799;DHT22;10059;59.850;10.454;2022-10-31T04:46:48;9.40;99.90
19799;DHT22;10059;59.850;10.454;2022-10-31T04:49:15;9.30;99.90
19799;DHT22;10059;59.850;10.454;2022-10-31T04:51:41;9.30;99.90
19799;DHT22;10059;59.850;10.454;2022-10-31T04:54:08;9.30;99.90
19799;DHT22;10059;59.850;10.454;2022-10-31T04:56:35;9.30;99.90
19799;DHT22;10059;59.850;10.454;2022-10-31T04:59:04;9.30;99.90
19799;DHT22;10059;59.850;10.454;2022-10-31T05:01:30;9.30;99.90
19799;DHT22;10059;59.850;10.454;2022-10-31T05:03:57;9.40;99.90
19799;DHT22;10059;59.850;10.454;2022-10-31T05:06:24;9.30;99.90
19799;DHT22;10059;59.850;10.454;2022-10-31T05:08:51;9.20;99.90
19799;DHT22;10059;59.850;10.454;2022-10-31T05:11:20;9.30;99.90
19799;DHT22;10059;59.850;10.454;2022-10-31T05:13:47;9.30;99.90
19799;DHT22;10059;59.850;10.454;2022-10-31T05:16:15;9.30;99.90
19799;DHT22;10059;59.850;10.454;2022-10-31T05:18:42;9.30;99.90
19799;DHT22;10059;59.850;10.454;2022-10-31T05:21:09;9.30;99.90
19799;DHT22;10059;59.850;10.454;2022-10-31T05:23:36;9.30;99.90
19799;DHT22;10059;59.850;10.454;2022-10-31T05:26:03;9.20;99.90
19799;DHT22;10059;59.850;10.454;2022-10-31T05:28:30;9.10;99.90
19799;DHT22;10059;59.850;10.454;2022-10-31T05:30:57;9.10;99.90
19799;DHT22;10059;59.850;10.454;2022-10-31T05:33:25;9.10;99.90
19799;DHT22;10059;59.850;10.454;2022-10-31T05:35:52;9.20;99.90
19799;DHT22;10059;59.850;10.454;2022-10-31T05:38:19;9.20;99.90
19799;DHT22;10059;59.850;10.454;2022-10-31T05:40:46;9.30;99.90
19799;DHT22;10059;59.850;10.454;2022-10-31T05:43:13;9.20;99.90
19799;DHT22;10059;59.850;10.454;2022-10-31T05:45:40;9.20;99.90
19799;DHT22;10059;59.850;10.454;2022-10-31T05:48:08;9.10;99.90
19799;DHT22;10059;59.850;10.454;2022-10-31T05:50:36;9.10;99.90
19799;DHT22;10059;59.850;10.454;2022-10-31T05:53:05;9.10;99.90
19799;DHT22;10059;59.850;10.454;2022-10-31T05:55:32;9.10;99.90
19799;DHT22;10059;59.850;10.454;2022-10-31T05:57:59;9.20;99.90
19799;DHT22;10059;59.850;10.454;2022-10-31T06:00:26;9.10;99.90
19799;DHT22;10059;59.850;10.454;2022-10-31T06:02:58;9.20;99.90
19799;DHT22;10059;59.850;10.454;2022-10-31T06:05:25;9.20;99.90
19799;DHT22;10059;59.850;10.454;2022-10-31T06:07:53;9.30;99.90
19799;DHT22;10059;59.850;10.454;2022-10-31T06:10:20;9.30;99.90
19799;DHT22;10059;59.850;10.454;2022-10-31T06:12:47;9.30;99.90
19799;DHT22;10059;59.850;10.454;2022-10-31T06:15:15;9.30;99.90
19799;DHT22;10059;59.850;10.454;2022-10-31T06:17:42;9.30;99.90
19799;DHT22;10059;59.850;10.454;2022-10-31T06:20:16;9.30;99.90
19799;DHT22;10059;59.850;10.454;2022-10-31T06:22:43;9.30;99.90
19799;DHT22;10059;59.850;10.454;2022-10-31T06:25:11;9.40;99.90
19799;DHT22;10059;59.850;10.454;2022-10-31T06:27:38;9.50;99.90
19799;DHT22;10059;59.850;10.454;2022-10-31T06:30:06;9.40;99.90
19799;DHT22;10059;59.850;10.454;2022-10-31T06:32:33;9.40;99.90
19799;DHT22;10059;59.850;10.454;2022-10-31T06:35:00;9.40;99.90
19799;DHT22;10059;59.850;10.454;2022-10-31T06:37:27;9.40;99.90
19799;DHT22;10059;59.850;10.454;2022-10-31T06:39:54;9.50;99.90
19799;DHT22;10059;59.850;10.454;2022-10-31T06:42:22;9.40;99.90
19799;DHT22;10059;59.850;10.454;2022-10-31T06:44:49;9.30;99.90
19799;DHT22;10059;59.850;10.454;2022-10-31T06:47:16;9.20;99.90
19799;DHT22;10059;59.850;10.454;2022-10-31T06:49:43;9.30;99.90
19799;DHT22;10059;59.850;10.454;2022-10-31T06:52:09;9.40;99.90
19799;DHT22;10059;59.850;10.454;2022-10-31T06:54:36;9.30;99.90
19799;DHT22;10059;59.850;10.454;2022-10-31T06:57:03;9.50;99.90
19799;DHT22;10059;59.850;10.454;2022-10-31T06:59:31;9.50;99.90
19799;DHT22;10059;59.850;10.454;2022-10-31T07:01:58;9.40;99.90
19799;DHT22;10059;59.850;10.454;2022-10-31T07:04:25;9.50;99.90
19799;DHT22;10059;59.850;10.454;2022-10-31T07:06:52;9.60;99.90
19799;DHT22;10059;59.850;10.454;2022-10-31T07:09:19;9.60;99.90
19799;DHT22;10059;59.850;10.454;2022-10-31T07:11:46;9.70;99.90
19799;DHT22;10059;59.850;10.454;2022-10-31T07:14:13;9.70;99.90
19799;DHT22;10059;59.850;10.454;2022-10-31T07:16:41;9.80;99.90
19799;DHT22;10059;59.850;10.454;2022-10-31T07:19:08;9.90;99.90
19799;DHT22;10059;59.850;10.454;2022-10-31T07:21:35;10.00;99.90
19799;DHT22;10059;59.850;10.454;2022-10-31T07:24:02;10.10;99.90
19799;DHT22;10059;59.850;10.454;2022-10-31T07:26:29;10.00;99.90
19799;DHT22;10059;59.850;10.454;2022-10-31T07:28:56;10.00;99.90
19799;DHT22;10059;59.850;10.454;2022-10-31T07:31:24;10.00;99.90
19799;DHT22;10059;59.850;10.454;2022-10-31T07:33:52;10.10;99.90
19799;DHT22;10059;59.850;10.454;2022-10-31T07:36:19;10.10;99.90
19799;DHT22;10059;59.850;10.454;2022-10-31T07:38:46;10.20;99.90
19799;DHT22;10059;59.850;10.454;2022-10-31T07:41:22;10.30;99.90
19799;DHT22;10059;59.850;10.454;2022-10-31T07:43:49;10.30;99.90
19799;DHT22;10059;59.850;10.454;2022-10-31T07:46:16;10.20;99.90
19799;DHT22;10059;59.850;10.454;2022-10-31T07:48:43;10.20;99.90
19799;DHT22;10059;59.850;10.454;2022-10-31T07:51:11;10.20;99.90
19799;DHT22;10059;59.850;10.454;2022-10-31T07:53:38;10.20;99.90
19799;DHT22;10059;59.850;10.454;2022-10-31T07:56:05;10.20;99.90
19799;DHT22;10059;59.850;10.454;2022-10-31T07:58:32;10.30;99.90
19799;DHT22;10059;59.850;10.454;2022-10-31T08:00:59;10.40;99.90
19799;DHT22;10059;59.850;10.454;2022-10-31T08:03:26;10.40;99.90
19799;DHT22;10059;59.850;10.454;2022-10-31T08:05:53;10.50;99.90
19799;DHT22;10059;59.850;10.454;2022-10-31T08:08:21;10.60;99.90
19799;DHT22;10059;59.850;10.454;2022-10-31T08:10:49;10.60;99.90
19799;DHT22;10059;59.850;10.454;2022-10-31T08:13:16;10.60;99.90
19799;DHT22;10059;59.850;10.454;2022-10-31T08:15:43;10.70;99.90
19799;DHT22;10059;59.850;10.454;2022-10-31T08:18:15;10.70;99.90
19799;DHT22;10059;59.850;10.454;2022-10-31T08:20:43;10.70;99.90
19799;DHT22;10059;59.850;10.454;2022-10-31T08:23:11;10.80;99.90
19799;DHT22;10059;59.850;10.454;2022-10-31T08:25:40;10.70;99.90
19799;DHT22;10059;59.850;10.454;2022-10-31T08:28:09;10.80;99.90
19799;DHT22;10059;59.850;10.454;2022-10-31T08:30:37;10.90;99.90
19799;DHT22;10059;59.850;10.454;2022-10-31T08:33:08;10.80;99.90
19799;DHT22;10059;59.850;10.454;2022-10-31T08:35:35;10.80;99.90
19799;DHT22;10059;59.850;10.454;2022-10-31T08:38:03;10.90;99.90
19799;DHT22;10059;59.850;10.454;2022-10-31T08:40:31;10.90;99.90
19799;DHT22;10059;59.850;10.454;2022-10-31T08:43:01;10.90;99.90
19799;DHT22;10059;59.850;10.454;2022-10-31T08:45:29;10.80;99.90
19799;DHT22;10059;59.850;10.454;2022-10-31T08:47:57;10.70;99.90
19799;DHT22;10059;59.850;10.454;2022-10-31T08:50:25;10.60;99.90
19799;DHT22;10059;59.850;10.454;2022-10-31T08:52:52;10.70;99.90
19799;DHT22;10059;59.850;10.454;2022-10-31T08:55:19;10.80;99.90
19799;DHT22;10059;59.850;10.454;2022-10-31T08:57:46;10.80;99.90
19799;DHT22;10059;59.850;10.454;2022-10-31T09:00:15;10.80;99.90
19799;DHT22;10059;59.850;10.454;2022-10-31T09:02:42;10.90;99.90
19799;DHT22;10059;59.850;10.454;2022-10-31T09:05:09;11.10;99.90
19799;DHT22;10059;59.850;10.454;2022-10-31T09:07:35;11.40;99.90
19799;DHT22;10059;59.850;10.454;2022-10-31T09:10:03;11.60;99.90
19799;DHT22;10059;59.850;10.454;2022-10-31T09:12:30;11.70;99.90
19799;DHT22;10059;59.850;10.454;2022-10-31T09:14:57;11.80;99.90
19799;DHT22;10059;59.850;10.454;2022-10-31T09:17:27;11.80;99.90
19799;DHT22;10059;59.850;10.454;2022-10-31T09:19:54;11.90;99.90
19799;DHT22;10059;59.850;10.454;2022-10-31T09:22:22;11.80;99.90
19799;DHT22;10059;59.850;10.454;2022-10-31T09:24:49;11.90;99.90
19799;DHT22;10059;59.850;10.454;2022-10-31T09:27:16;11.80;99.90
19799;DHT22;10059;59.850;10.454;2022-10-31T09:29:43;11.70;99.90
19799;DHT22;10059;59.850;10.454;2022-10-31T09:32:09;11.80;99.90
19799;DHT22;10059;59.850;10.454;2022-10-31T09:34:38;11.70;99.90
19799;DHT22;10059;59.850;10.454;2022-10-31T09:37:05;11.70;99.90
19799;DHT22;10059;59.850;10.454;2022-10-31T09:39:31;11.70;99.90
19799;DHT22;10059;59.850;10.454;2022-10-31T09:42:15;11.60;99.90
19799;DHT22;10059;59.850;10.454;2022-10-31T09:44:50;11.70;99.90
19799;DHT22;10059;59.850;10.454;2022-10-31T09:47:24;11.80;99.90
19799;DHT22;10059;59.850;10.454;2022-10-31T09:50:11;11.80;99.90
19799;DHT22;10059;59.850;10.454;2022-10-31T09:52:43;11.80;99.90
19799;DHT22;10059;59.850;10.454;2022-10-31T09:55:16;11.90;99.90
19799;DHT22;10059;59.850;10.454;2022-10-31T09:57:44;12.20;99.90
19799;DHT22;10059;59.850;10.454;2022-10-31T10:00:17;12.00;99.90
19799;DHT22;10059;59.850;10.454;2022-10-31T10:02:47;12.00;99.90
19799;DHT22;10059;59.850;10.454;2022-10-31T10:05:19;12.10;99.90
19799;DHT22;10059;59.850;10.454;2022-10-31T10:07:54;12.60;99.90
19799;DHT22;10059;59.850;10.454;2022-10-31T10:10:27;12.80;99.90
19799;DHT22;10059;59.850;10.454;2022-10-31T10:13:09;12.90;99.90
19799;DHT22;10059;59.850;10.454;2022-10-31T10:15:54;12.70;99.90
19799;DHT22;10059;59.850;10.454;2022-10-31T10:18:28;12.80;99.90
19799;DHT22;10059;59.850;10.454;2022-10-31T10:21:13;13.20;99.90
19799;DHT22;10059;59.850;10.454;2022-10-31T10:23:53;14.10;99.90
19799;DHT22;10059;59.850;10.454;2022-10-31T10:26:24;14.00;99.90
19799;DHT22;10059;59.850;10.454;2022-10-31T10:28:56;13.90;99.90
19799;DHT22;10059;59.850;10.454;2022-10-31T10:31:27;13.80;99.90
19799;DHT22;10059;59.850;10.454;2022-10-31T10:34:01;13.50;99.90
19799;DHT22;10059;59.850;10.454;2022-10-31T10:36:37;13.20;99.90
19799;DHT22;10059;59.850;10.454;2022-10-31T10:39:14;13.00;99.90
19799;DHT22;10059;59.850;10.454;2022-10-31T10:41:45;12.50;99.90
19799;DHT22;10059;59.850;10.454;2022-10-31T10:44:27;12.30;99.90
19799;DHT22;10059;59.850;10.454;2022-10-31T10:47:12;12.10;99.90
19799;DHT22;10059;59.850;10.454;2022-10-31T10:49:56;12.20;99.90
19799;DHT22;10059;59.850;10.454;2022-10-31T10:52:31;12.30;99.90
19799;DHT22;10059;59.850;10.454;2022-10-31T10:55:10;12.30;99.90
19799;DHT22;10059;59.850;10.454;2022-10-31T10:57:50;12.40;99.90
19799;DHT22;10059;59.850;10.454;2022-10-31T11:00:21;13.00;99.90
19799;DHT22;10059;59.850;10.454;2022-10-31T11:02:49;14.60;99.90
19799;DHT22;10059;59.850;10.454;2022-10-31T11:05:24;15.60;99.90
19799;DHT22;10059;59.850;10.454;2022-10-31T11:07:53;16.70;99.90
19799;DHT22;10059;59.850;10.454;2022-10-31T11:10:20;17.50;99.90
19799;DHT22;10059;59.850;10.454;2022-10-31T11:13:00;18.80;99.90
19799;DHT22;10059;59.850;10.454;2022-10-31T11:15:28;19.60;99.90
19799;DHT22;10059;59.850;10.454;2022-10-31T11:17:57;19.60;99.90
19799;DHT22;10059;59.850;10.454;2022-10-31T11:20:28;21.00;99.90
19799;DHT22;10059;59.850;10.454;2022-10-31T11:23:15;21.70;99.90
19799;DHT22;10059;59.850;10.454;2022-10-31T11:25:49;21.80;99.90
19799;DHT22;10059;59.850;10.454;2022-10-31T11:28:17;22.20;99.90
19799;DHT22;10059;59.850;10.454;2022-10-31T11:30:47;21.10;99.90
19799;DHT22;10059;59.850;10.454;2022-10-31T11:33:19;20.00;99.90
19799;DHT22;10059;59.850;10.454;2022-10-31T11:35:47;19.30;99.90
19799;DHT22;10059;59.850;10.454;2022-10-31T11:38:19;19.40;99.90
19799;DHT22;10059;59.850;10.454;2022-10-31T11:40:54;20.30;99.90
19799;DHT22;10059;59.850;10.454;2022-10-31T11:43:23;20.40;99.90
19799;DHT22;10059;59.850;10.454;2022-10-31T11:45:50;20.80;99.90
19799;DHT22;10059;59.850;10.454;2022-10-31T11:48:22;20.50;99.90
19799;DHT22;10059;59.850;10.454;2022-10-31T11:50:51;19.80;99.90
19799;DHT22;10059;59.850;10.454;2022-10-31T11:53:26;18.90;99.90
19799;DHT22;10059;59.850;10.454;2022-10-31T11:56:06;19.00;99.90
19799;DHT22;10059;59.850;10.454;2022-10-31T11:58:33;18.70;99.90
19799;DHT22;10059;59.850;10.454;2022-10-31T12:01:00;18.00;99.90
19799;DHT22;10059;59.850;10.454;2022-10-31T12:03:38;17.60;99.90
19799;DHT22;10059;59.850;10.454;2022-10-31T12:06:11;17.10;99.90
19799;DHT22;10059;59.850;10.454;2022-10-31T12:08:41;17.10;99.90
19799;DHT22;10059;59.850;10.454;2022-10-31T12:11:16;17.10;99.90
19799;DHT22;10059;59.850;10.454;2022-10-31T12:13:55;17.20;99.90
19799;DHT22;10059;59.850;10.454;2022-10-31T12:16:28;16.90;99.90
19799;DHT22;10059;59.850;10.454;2022-10-31T12:19:00;17.20;99.90
19799;DHT22;10059;59.850;10.454;2022-10-31T12:21:42;17.80;99.90
19799;DHT22;10059;59.850;10.454;2022-10-31T12:24:22;18.10;99.90
19799;DHT22;10059;59.850;10.454;2022-10-31T12:27:08;18.70;99.90
19799;DHT22;10059;59.850;10.454;2022-10-31T12:29:55;18.70;99.90
19799;DHT22;10059;59.850;10.454;2022-10-31T12:32:33;18.80;99.90
19799;DHT22;10059;59.850;10.454;2022-10-31T12:35:14;18.80;99.90
19799;DHT22;10059;59.850;10.454;2022-10-31T12:37:52;19.80;99.90
19799;DHT22;10059;59.850;10.454;2022-10-31T12:40:45;19.70;99.90
19799;DHT22;10059;59.850;10.454;2022-10-31T12:43:28;18.10;99.90
19799;DHT22;10059;59.850;10.454;2022-10-31T12:45:57;18.10;99.90
19799;DHT22;10059;59.850;10.454;2022-10-31T12:48:55;17.90;99.90
19799;DHT22;10059;59.850;10.454;2022-10-31T12:51:31;18.00;99.90
19799;DHT22;10059;59.850;10.454;2022-10-31T12:57:05;19.00;99.90
19799;DHT22;10059;59.850;10.454;2022-10-31T12:59:36;19.50;99.90
19799;DHT22;10059;59.850;10.454;2022-10-31T13:02:13;20.10;99.90
19799;DHT22;10059;59.850;10.454;2022-10-31T13:04:46;20.50;99.90
19799;DHT22;10059;59.850;10.454;2022-10-31T13:07:19;20.70;99.90
19799;DHT22;10059;59.850;10.454;2022-10-31T13:09:51;20.20;99.90
19799;DHT22;10059;59.850;10.454;2022-10-31T13:12:22;20.10;99.90
19799;DHT22;10059;59.850;10.454;2022-10-31T13:14:51;20.30;99.90
19799;DHT22;10059;59.850;10.454;2022-10-31T13:17:25;19.70;99.90
19799;DHT22;10059;59.850;10.454;2022-10-31T13:19:56;20.10;99.90
19799;DHT22;10059;59.850;10.454;2022-10-31T13:22:31;20.50;99.90
19799;DHT22;10059;59.850;10.454;2022-10-31T13:25:09;20.90;99.90
19799;DHT22;10059;59.850;10.454;2022-10-31T13:27:45;20.20;99.90
19799;DHT22;10059;59.850;10.454;2022-10-31T13:30:16;18.60;99.90
19799;DHT22;10059;59.850;10.454;2022-10-31T13:32:48;17.40;99.90
19799;DHT22;10059;59.850;10.454;2022-10-31T13:35:21;17.00;99.90
19799;DHT22;10059;59.850;10.454;2022-10-31T13:37:54;16.50;99.90
19799;DHT22;10059;59.850;10.454;2022-10-31T13:40:33;16.10;99.90
19799;DHT22;10059;59.850;10.454;2022-10-31T13:43:06;16.00;99.90
19799;DHT22;10059;59.850;10.454;2022-10-31T13:45:48;15.70;99.90
19799;DHT22;10059;59.850;10.454;2022-10-31T13:48:33;15.40;99.90
19799;DHT22;10059;59.850;10.454;2022-10-31T13:51:02;15.30;99.90
19799;DHT22;10059;59.850;10.454;2022-10-31T13:53:44;15.00;99.90
19799;DHT22;10059;59.850;10.454;2022-10-31T13:56:18;14.80;99.90
19799;DHT22;10059;59.850;10.454;2022-10-31T13:59:03;14.90;99.90
19799;DHT22;10059;59.850;10.454;2022-10-31T14:01:31;14.70;99.90
19799;DHT22;10059;59.850;10.454;2022-10-31T14:04:03;14.40;99.90
19799;DHT22;10059;59.850;10.454;2022-10-31T14:06:42;14.20;99.90
19799;DHT22;10059;59.850;10.454;2022-10-31T14:09:36;14.00;99.90
19799;DHT22;10059;59.850;10.454;2022-10-31T14:12:06;13.70;99.90
19799;DHT22;10059;59.850;10.454;2022-10-31T14:14:44;13.50;99.90
19799;DHT22;10059;59.850;10.454;2022-10-31T14:17:19;13.60;99.90
19799;DHT22;10059;59.850;10.454;2022-10-31T14:20:00;13.50;99.90
19799;DHT22;10059;59.850;10.454;2022-10-31T14:22:32;13.40;99.90
19799;DHT22;10059;59.850;10.454;2022-10-31T14:24:59;13.30;99.90
19799;DHT22;10059;59.850;10.454;2022-10-31T14:27:44;13.10;99.90
19799;DHT22;10059;59.850;10.454;2022-10-31T14:30:18;12.90;99.90
19799;DHT22;10059;59.850;10.454;2022-10-31T14:32:50;12.90;99.90
19799;DHT22;10059;59.850;10.454;2022-10-31T14:35:20;13.00;99.90
19799;DHT22;10059;59.850;10.454;2022-10-31T14:38:08;13.10;99.90
19799;DHT22;10059;59.850;10.454;2022-10-31T14:41:06;13.00;99.90
19799;DHT22;10059;59.850;10.454;2022-10-31T14:43:44;12.70;99.90
19799;DHT22;10059;59.850;10.454;2022-10-31T14:46:23;12.30;99.90
19799;DHT22;10059;59.850;10.454;2022-10-31T14:49:06;11.80;99.90
19799;DHT22;10059;59.850;10.454;2022-10-31T14:51:39;11.70;99.90
19799;DHT22;10059;59.850;10.454;2022-10-31T14:54:11;11.60;99.90
19799;DHT22;10059;59.850;10.454;2022-10-31T14:56:47;11.80;99.90
19799;DHT22;10059;59.850;10.454;2022-10-31T14:59:17;11.90;99.90
19799;DHT22;10059;59.850;10.454;2022-10-31T15:01:55;11.90;99.90
19799;DHT22;10059;59.850;10.454;2022-10-31T15:04:25;11.70;99.90
19799;DHT22;10059;59.850;10.454;2022-10-31T15:07:02;11.70;99.90
19799;DHT22;10059;59.850;10.454;2022-10-31T15:09:32;11.70;99.90
19799;DHT22;10059;59.850;10.454;2022-10-31T15:12:00;11.70;99.90
19799;DHT22;10059;59.850;10.454;2022-10-31T15:14:29;11.60;99.90
19799;DHT22;10059;59.850;10.454;2022-10-31T15:16:59;11.20;99.90
19799;DHT22;10059;59.850;10.454;2022-10-31T15:19:29;10.80;99.90
19799;DHT22;10059;59.850;10.454;2022-10-31T15:21:58;10.60;99.90
19799;DHT22;10059;59.850;10.454;2022-10-31T15:24:33;10.30;99.90
19799;DHT22;10059;59.850;10.454;2022-10-31T15:27:01;10.10;99.90
19799;DHT22;10059;59.850;10.454;2022-10-31T15:29:28;10.10;99.90
19799;DHT22;10059;59.850;10.454;2022-10-31T15:31:56;9.90;99.90
19799;DHT22;10059;59.850;10.454;2022-10-31T15:34:37;9.90;99.90
19799;DHT22;10059;59.850;10.454;2022-10-31T15:37:07;9.70;99.90
19799;DHT22;10059;59.850;10.454;2022-10-31T15:39:35;9.70;99.90
19799;DHT22;10059;59.850;10.454;2022-10-31T15:42:03;9.60;99.90
19799;DHT22;10059;59.850;10.454;2022-10-31T15:44:31;9.60;99.90
19799;DHT22;10059;59.850;10.454;2022-10-31T15:47:02;9.50;99.90
19799;DHT22;10059;59.850;10.454;2022-10-31T15:49:36;9.60;99.90
19799;DHT22;10059;59.850;10.454;2022-10-31T15:52:06;9.60;99.90